createdAt,value
2023-04-26T00:00:24.857Z,0.64
2023-04-26T00:05:21.544Z,0.53
2023-04-26T00:10:18.568Z,0.40
2023-04-26T00:15:14.916Z,0.36
2023-04-26T00:20:12.857Z,0.26
2023-04-26T00:25:09.832Z,0.16
2023-04-26T00:30:06.786Z,-0.05
2023-04-26T00:35:04.420Z,-0.18
2023-04-26T00:40:00.806Z,-0.13
2023-04-26T00:44:57.702Z,-0.25
2023-04-26T00:49:54.271Z,-0.25
2023-04-26T00:54:51.332Z,-0.21
2023-04-26T00:59:47.763Z,-0.11
2023-04-26T01:04:45.629Z,-0.14
2023-04-26T01:09:44.040Z,-0.19
2023-04-26T01:14:41.028Z,-0.24
2023-04-26T01:19:47.098Z,-0.61
2023-04-26T01:24:50.078Z,-0.62
2023-04-26T01:29:47.526Z,-0.62
2023-04-26T01:34:43.885Z,-0.47
2023-04-26T01:39:40.270Z,-0.39
2023-04-26T01:44:36.625Z,-0.48
2023-04-26T01:49:33.157Z,-0.61
2023-04-26T01:54:29.484Z,-0.64
2023-04-26T01:59:26.768Z,-0.69
2023-04-26T02:04:24.223Z,-0.72
2023-04-26T02:09:20.534Z,-0.68
2023-04-26T02:14:17.083Z,-0.75
2023-04-26T02:19:13.596Z,-0.87
2023-04-26T02:24:10.423Z,-0.87
2023-04-26T02:29:07.300Z,-0.91
2023-04-26T02:34:03.664Z,-0.78
2023-04-26T02:39:00.415Z,-0.89
2023-04-26T02:43:56.807Z,-0.99
2023-04-26T02:48:53.215Z,-0.96
2023-04-26T02:53:49.868Z,-1.09
2023-04-26T02:58:46.584Z,-1.20
2023-04-26T03:03:42.981Z,-1.03
2023-04-26T03:08:39.337Z,-1.10
2023-04-26T03:13:35.653Z,-1.30
2023-04-26T03:18:32.021Z,-1.45
2023-04-26T03:23:29.237Z,-1.49
2023-04-26T03:28:25.546Z,-1.55
2023-04-26T03:33:21.939Z,-1.63
2023-04-26T03:38:18.260Z,-1.68
2023-04-26T03:43:14.605Z,-1.66
2023-04-26T03:48:10.994Z,-1.63
2023-04-26T03:53:07.739Z,-1.65
2023-04-26T03:58:07.765Z,-1.75
2023-04-26T04:03:04.704Z,-1.73
2023-04-26T04:08:01.826Z,-1.60
2023-04-26T04:12:58.190Z,-1.51
2023-04-26T04:17:54.646Z,-1.50
2023-04-26T04:22:51.194Z,-1.38
2023-04-26T04:27:48.548Z,-1.37
2023-04-26T04:32:45.272Z,-1.33
2023-04-26T04:37:41.805Z,-1.20
2023-04-26T04:42:38.172Z,-1.09
2023-04-26T04:47:37.694Z,-1.07
2023-04-26T04:52:34.242Z,-1.00
2023-04-26T04:57:31.636Z,-0.92
2023-04-26T05:02:28.151Z,-0.69
2023-04-26T05:07:24.795Z,-0.48
2023-04-26T05:12:21.782Z,-0.34
2023-04-26T05:17:18.146Z,-0.25
2023-04-26T05:22:18.858Z,0.02
2023-04-26T05:27:15.457Z,0.32
2023-04-26T05:32:11.810Z,0.77
2023-04-26T05:37:08.184Z,1.66
2023-04-26T05:42:04.565Z,2.05
2023-04-26T05:47:01.030Z,2.39
2023-04-26T05:51:59.484Z,2.72
2023-04-26T05:56:57.841Z,2.59
2023-04-26T06:01:55.458Z,3.10
2023-04-26T06:06:51.903Z,2.75
2023-04-26T06:11:48.236Z,2.74
2023-04-26T06:16:44.719Z,3.20
2023-04-26T06:21:41.175Z,3.27
2023-04-26T06:26:37.729Z,3.19
2023-04-26T06:31:34.342Z,3.49
2023-04-26T06:36:31.337Z,3.09
2023-04-26T06:41:27.677Z,3.09
2023-04-26T06:46:24.634Z,3.22
2023-04-26T06:51:21.024Z,3.14
2023-04-26T06:56:17.489Z,3.26
2023-04-26T07:01:13.914Z,3.62
2023-04-26T07:06:10.662Z,3.90
2023-04-26T07:11:10.548Z,3.58
2023-04-26T07:16:07.030Z,3.90
2023-04-26T07:21:03.535Z,4.35
2023-04-26T07:26:01.505Z,4.46
2023-04-26T07:30:59.179Z,4.56
2023-04-26T07:36:01.408Z,4.99
2023-04-26T07:40:58.262Z,5.31
2023-04-26T07:45:54.645Z,5.61
2023-04-26T07:50:52.054Z,6.26
2023-04-26T07:55:49.609Z,6.46
2023-04-26T08:00:46.082Z,5.54
2023-04-26T08:05:42.854Z,5.56
2023-04-26T08:10:42.815Z,6.40
2023-04-26T08:15:39.207Z,6.42
2023-04-26T08:20:35.661Z,6.55
2023-04-26T08:25:34.659Z,6.21
2023-04-26T08:30:31.122Z,6.09
2023-04-26T08:35:27.496Z,6.29
2023-04-26T08:40:24.899Z,6.79
2023-04-26T08:45:22.259Z,6.51
2023-04-26T08:50:23.186Z,6.29
2023-04-26T08:55:21.789Z,6.22
2023-04-26T09:00:18.801Z,6.57
2023-04-26T09:05:15.535Z,6.87
2023-04-26T09:10:13.846Z,6.98
2023-04-26T09:15:10.860Z,7.04
2023-04-26T09:20:22.086Z,6.97
2023-04-26T09:25:29.689Z,6.52
2023-04-26T09:30:27.921Z,6.36
2023-04-26T09:35:31.085Z,6.69
2023-04-26T09:40:33.638Z,6.47
2023-04-26T09:45:32.215Z,6.54
2023-04-26T09:50:30.507Z,6.07
2023-04-26T09:55:34.701Z,6.13
2023-04-26T10:00:32.230Z,6.00
2023-04-26T10:05:33.994Z,6.01
2023-04-26T10:10:31.849Z,6.26
2023-04-26T10:15:28.527Z,6.25
2023-04-26T10:20:28.472Z,6.37
2023-04-26T10:25:36.369Z,6.77
2023-04-26T10:30:32.898Z,6.83
2023-04-26T10:35:32.994Z,6.72
2023-04-26T10:40:35.438Z,6.74
2023-04-26T10:45:31.794Z,6.84
2023-04-26T10:50:28.176Z,6.83
2023-04-26T10:55:43.167Z,7.34
2023-04-26T11:00:39.724Z,7.34
2023-04-26T11:05:41.045Z,7.75
2023-04-26T11:10:38.843Z,8.27
2023-04-26T11:15:35.610Z,8.09
2023-04-26T11:20:32.804Z,8.13
2023-04-26T11:25:29.809Z,7.68
2023-04-26T11:30:28.584Z,7.42
2023-04-26T11:35:26.160Z,7.05
2023-04-26T11:40:22.686Z,7.39
2023-04-26T11:45:19.081Z,7.59
2023-04-26T11:50:15.780Z,7.83
2023-04-26T11:55:12.625Z,8.08
2023-04-26T12:00:17.015Z,7.81
2023-04-26T12:05:27.792Z,7.60
2023-04-26T12:10:37.592Z,7.52
2023-04-26T12:15:34.882Z,7.59
2023-04-26T12:20:35.722Z,7.67
2023-04-26T12:25:37.259Z,7.68
2023-04-26T12:30:33.681Z,7.80
2023-04-26T12:35:30.847Z,7.95
2023-04-26T12:40:28.308Z,7.61
2023-04-26T12:45:28.375Z,7.47
2023-04-26T12:50:24.802Z,7.26
2023-04-26T12:55:21.228Z,7.24
2023-04-26T13:00:18.159Z,7.27
2023-04-26T13:05:24.565Z,6.99
2023-04-26T13:10:21.417Z,7.13
2023-04-26T13:15:18.044Z,7.08
2023-04-26T13:20:14.443Z,7.57
2023-04-26T13:25:11.210Z,7.47
2023-04-26T13:30:08.490Z,7.57
2023-04-26T13:35:05.424Z,7.72
2023-04-26T13:40:01.981Z,8.08
2023-04-26T13:44:58.379Z,7.98
2023-04-26T13:49:54.928Z,7.93
2023-04-26T13:54:51.340Z,7.76
2023-04-26T13:59:48.235Z,7.78
2023-04-26T14:04:44.924Z,7.83
2023-04-26T14:09:41.481Z,8.01
2023-04-26T14:14:37.916Z,8.19
2023-04-26T14:19:34.250Z,7.96
2023-04-26T14:24:30.606Z,7.93
2023-04-26T14:29:27.060Z,7.98
2023-04-26T14:34:23.676Z,8.36
2023-04-26T14:39:20.052Z,9.83
2023-04-26T14:44:16.494Z,9.31
2023-04-26T14:49:12.840Z,9.27
2023-04-26T14:54:09.199Z,9.09
2023-04-26T14:59:05.631Z,9.26
2023-04-26T15:04:02.085Z,8.52
2023-04-26T15:08:58.631Z,9.06
2023-04-26T15:13:55.043Z,10.08
2023-04-26T15:18:51.571Z,10.29
2023-04-26T15:23:47.952Z,10.34
2023-04-26T15:28:44.398Z,9.60
2023-04-26T15:33:41.189Z,9.15
2023-04-26T15:38:37.585Z,10.12
2023-04-26T15:43:34.099Z,9.09
2023-04-26T15:48:31.318Z,9.32
2023-04-26T15:53:27.979Z,9.67
2023-04-26T15:58:24.300Z,9.35
2023-04-26T16:03:21.428Z,8.64
2023-04-26T16:08:36.752Z,8.31
2023-04-26T16:13:37.212Z,8.46
2023-04-26T16:18:34.159Z,8.90
2023-04-26T16:23:31.441Z,8.75
2023-04-26T16:28:28.186Z,8.46
2023-04-26T16:33:24.916Z,8.57
2023-04-26T16:38:24.448Z,8.40
2023-04-26T16:43:21.003Z,8.51
2023-04-26T16:48:17.570Z,8.30
2023-04-26T16:53:14.227Z,8.08
2023-04-26T16:58:11.571Z,7.93
2023-04-26T17:03:08.748Z,7.83
2023-04-26T17:08:06.175Z,7.85
2023-04-26T17:13:03.889Z,7.71
2023-04-26T17:18:07.326Z,7.71
2023-04-26T17:23:04.301Z,7.62
2023-04-26T17:28:00.739Z,7.58
2023-04-26T17:32:57.187Z,7.50
2023-04-26T17:37:53.626Z,7.42
2023-04-26T17:42:50.128Z,7.42
2023-04-26T17:47:46.585Z,7.41
2023-04-26T17:52:43.472Z,7.29
2023-04-26T17:57:39.824Z,7.30
2023-04-26T18:02:37.302Z,7.27
2023-04-26T18:07:33.835Z,7.22
2023-04-26T18:12:31.794Z,7.14
2023-04-26T18:17:28.197Z,7.09
2023-04-26T18:22:24.607Z,7.03
2023-04-26T18:27:21.249Z,7.01
2023-04-26T18:32:17.689Z,6.96
2023-04-26T18:37:14.410Z,6.91
2023-04-26T18:42:10.923Z,6.87
2023-04-26T18:47:07.512Z,6.86
2023-04-26T18:52:04.144Z,6.84
2023-04-26T18:57:03.314Z,6.81
2023-04-26T19:01:59.916Z,6.79
2023-04-26T19:06:57.034Z,6.78
2023-04-26T19:11:53.368Z,6.76
2023-04-26T19:16:49.723Z,6.71
2023-04-26T19:21:46.242Z,6.72
2023-04-26T19:26:42.637Z,6.64
2023-04-26T19:31:39.024Z,6.60
2023-04-26T19:36:36.198Z,6.57
2023-04-26T19:41:32.547Z,6.50
2023-04-26T19:46:28.879Z,6.37
2023-04-26T19:51:25.288Z,6.28
2023-04-26T19:56:21.636Z,6.21
2023-04-26T20:01:17.966Z,6.18
2023-04-26T20:06:14.760Z,6.17
2023-04-26T20:11:15.403Z,6.17
2023-04-26T20:16:12.083Z,6.23
2023-04-26T20:21:08.396Z,6.06
2023-04-26T20:26:04.697Z,5.99
2023-04-26T20:31:01.360Z,5.92
2023-04-26T20:35:57.649Z,5.89
2023-04-26T20:40:54.106Z,5.88
2023-04-26T20:45:51.037Z,5.85
2023-04-26T20:50:47.443Z,5.72
2023-04-26T20:55:43.897Z,5.80
2023-04-26T21:00:42.121Z,5.84
2023-04-26T21:05:38.436Z,5.81
2023-04-26T21:10:34.744Z,5.68
2023-04-26T21:15:31.447Z,5.62
2023-04-26T21:20:27.756Z,5.54
2023-04-26T21:25:24.104Z,5.43
2023-04-26T21:30:20.831Z,5.27
2023-04-26T21:35:17.360Z,5.14
2023-04-26T21:40:13.857Z,4.94
2023-04-26T21:45:11.334Z,4.80
2023-04-26T21:50:08.033Z,4.66
2023-04-26T21:55:04.704Z,4.51
2023-04-26T22:00:01.083Z,4.52
2023-04-26T22:04:57.376Z,4.39
2023-04-26T22:09:53.665Z,4.26
2023-04-26T22:14:49.976Z,4.14
2023-04-26T22:19:46.290Z,4.10
2023-04-26T22:24:42.645Z,4.11
2023-04-26T22:29:38.957Z,3.95
2023-04-26T22:34:35.409Z,3.68
2023-04-26T22:39:31.705Z,3.57
2023-04-26T22:44:28.102Z,3.42
2023-04-26T22:49:25.715Z,3.46
2023-04-26T22:54:22.099Z,3.48
2023-04-26T22:59:18.457Z,3.42
2023-04-26T23:04:14.842Z,3.12
2023-04-26T23:09:11.617Z,2.91
2023-04-26T23:14:08.171Z,2.84
2023-04-26T23:19:04.498Z,2.81
2023-04-26T23:24:00.881Z,2.73
2023-04-26T23:28:57.287Z,2.70
2023-04-26T23:33:53.605Z,2.74
2023-04-26T23:38:49.903Z,2.65
2023-04-26T23:43:46.206Z,2.68
2023-04-26T23:48:42.569Z,2.62
2023-04-26T23:53:39.640Z,2.58
2023-04-26T23:58:36.017Z,2.48
